createdAt,value
2019-02-04T00:01:33.289Z,100378.00
2019-02-04T00:04:03.847Z,100375.00
2019-02-04T00:06:33.516Z,100379.00
2019-02-04T00:09:04.648Z,100371.00
2019-02-04T00:11:34.345Z,100378.00
2019-02-04T00:14:04.101Z,100375.00
2019-02-04T00:16:40.766Z,100382.00
2019-02-04T00:19:05.920Z,100375.00
2019-02-04T00:21:37.064Z,100353.00
2019-02-04T00:24:06.717Z,100349.00
2019-02-04T00:26:36.417Z,100356.00
2019-02-04T00:29:06.779Z,100347.00
2019-02-04T00:31:36.248Z,100335.00
2019-02-04T00:34:05.919Z,100334.00
2019-02-04T00:36:37.594Z,100323.00
2019-02-04T00:39:08.764Z,100313.00
2019-02-04T00:41:38.951Z,100304.00
2019-02-04T00:44:08.597Z,100294.00
2019-02-04T00:46:51.768Z,100302.00
2019-02-04T00:49:11.730Z,100291.00
2019-02-04T00:51:41.387Z,100287.00
2019-02-04T00:54:11.110Z,100289.00
2019-02-04T00:56:40.819Z,100300.00
2019-02-04T00:59:10.501Z,100294.00
2019-02-04T01:01:40.223Z,100292.00
2019-02-04T01:04:09.991Z,100282.00
2019-02-04T01:06:39.647Z,100285.00
2019-02-04T01:09:10.842Z,100277.00
2019-02-04T01:11:40.537Z,100261.00
2019-02-04T01:14:10.190Z,100267.00
2019-02-04T01:16:39.849Z,100262.00
2019-02-04T01:19:09.534Z,100198.00
2019-02-04T01:21:39.210Z,100253.00
2019-02-04T01:24:09.843Z,100253.00
2019-02-04T01:26:39.512Z,100260.00
2019-02-04T01:29:09.174Z,100252.00
2019-02-04T01:31:39.145Z,100252.00
2019-02-04T01:34:11.239Z,100251.00
2019-02-04T01:36:40.885Z,100239.00
2019-02-04T01:39:10.704Z,100224.00
2019-02-04T01:41:41.526Z,100237.00
2019-02-04T01:44:11.252Z,100222.00
2019-02-04T01:46:40.891Z,100217.00
2019-02-04T01:49:10.865Z,100207.00
2019-02-04T01:51:40.519Z,100216.00
2019-02-04T01:54:10.185Z,100219.00
2019-02-04T01:56:39.850Z,100203.00
2019-02-04T01:59:11.170Z,100205.00
2019-02-04T02:01:41.757Z,100203.00
2019-02-04T02:04:11.460Z,100190.00
2019-02-04T02:06:41.644Z,100200.00
2019-02-04T02:09:12.952Z,100197.00
2019-02-04T02:11:43.844Z,100196.00
2019-02-04T02:14:13.499Z,100192.00
2019-02-04T02:16:43.225Z,100174.00
2019-02-04T02:19:12.912Z,100173.00
2019-02-04T02:21:42.676Z,100170.00
2019-02-04T02:24:14.288Z,100166.00
2019-02-04T02:26:45.032Z,100162.00
2019-02-04T02:29:15.175Z,100159.00
2019-02-04T02:31:44.835Z,100153.00
2019-02-04T02:34:14.524Z,100155.00
2019-02-04T02:36:44.187Z,100140.00
2019-02-04T02:39:13.877Z,100126.00
2019-02-04T02:41:43.499Z,100129.00
2019-02-04T02:44:13.360Z,100114.00
2019-02-04T02:46:43.023Z,100118.00
2019-02-04T02:49:12.631Z,100102.00
2019-02-04T02:51:42.301Z,100095.00
2019-02-04T02:54:11.894Z,100092.00
2019-02-04T02:56:41.582Z,100091.00
2019-02-04T02:59:11.313Z,100090.00
2019-02-04T03:01:40.968Z,100085.00
2019-02-04T03:04:10.648Z,100086.00
2019-02-04T03:06:40.298Z,100077.00
2019-02-04T03:09:10.275Z,100055.00
2019-02-04T03:11:40.270Z,100062.00
2019-02-04T03:14:09.933Z,100064.00
2019-02-04T03:16:39.591Z,100053.00
2019-02-04T03:19:09.272Z,100054.00
2019-02-04T03:21:38.959Z,100042.00
2019-02-04T03:24:08.604Z,100032.00
2019-02-04T03:26:38.226Z,100034.00
2019-02-04T03:29:08.105Z,100029.00
2019-02-04T03:31:42.300Z,100016.00
2019-02-04T03:34:10.344Z,100025.00
2019-02-04T03:36:40.006Z,100020.00
2019-02-04T03:39:10.447Z,100018.00
2019-02-04T03:41:40.135Z,100012.00
2019-02-04T03:44:11.397Z,99996.00
2019-02-04T03:46:41.075Z,99997.00
2019-02-04T03:49:10.727Z,99992.00
2019-02-04T03:51:40.376Z,99992.00
2019-02-04T03:54:10.058Z,99993.00
2019-02-04T03:56:39.710Z,99982.00
2019-02-04T03:59:09.361Z,99991.00
2019-02-04T04:01:39.438Z,99973.00
2019-02-04T04:04:09.294Z,99983.00
2019-02-04T04:06:38.944Z,99973.00
2019-02-04T04:09:09.120Z,99975.00
2019-02-04T04:11:38.804Z,99961.00
2019-02-04T04:14:08.456Z,99959.00
2019-02-04T04:16:38.151Z,99957.00
2019-02-04T04:19:08.185Z,99954.00
2019-02-04T04:21:37.858Z,99950.00
2019-02-04T04:24:07.539Z,99966.00
2019-02-04T04:26:37.216Z,99950.00
2019-02-04T04:29:06.810Z,99948.00
2019-02-04T04:31:36.478Z,99954.00
2019-02-04T04:34:06.802Z,99961.00
2019-02-04T04:36:36.446Z,99952.00
2019-02-04T04:39:08.139Z,99959.00
2019-02-04T04:41:37.726Z,99957.00
2019-02-04T04:44:07.437Z,99947.00
2019-02-04T04:46:37.104Z,99944.00
2019-02-04T04:49:06.749Z,99941.00
2019-02-04T04:51:36.326Z,99939.00
2019-02-04T04:54:06.602Z,99938.00
2019-02-04T04:56:36.249Z,99933.00
2019-02-04T04:59:06.196Z,99936.00
2019-02-04T05:01:36.474Z,99941.00
2019-02-04T05:04:06.130Z,99936.00
2019-02-04T05:06:35.800Z,99927.00
2019-02-04T05:09:07.549Z,99919.00
2019-02-04T05:11:37.207Z,99916.00
2019-02-04T05:14:07.016Z,99908.00
2019-02-04T05:16:36.862Z,99901.00
2019-02-04T05:19:06.532Z,99917.00
2019-02-04T05:21:36.712Z,99915.00
2019-02-04T05:24:06.394Z,99910.00
2019-02-04T05:26:36.049Z,99918.00
2019-02-04T05:29:06.273Z,99917.00
2019-02-04T05:31:35.931Z,99916.00
2019-02-04T05:34:05.894Z,99915.00
2019-02-04T05:36:35.554Z,99935.00
2019-02-04T05:39:08.230Z,99921.00
2019-02-04T05:41:38.393Z,99921.00
2019-02-04T05:44:08.335Z,99910.00
2019-02-04T05:46:37.987Z,99880.00
2019-02-04T05:49:07.649Z,99846.00
2019-02-04T05:51:37.242Z,99835.00
2019-02-04T05:54:06.936Z,99799.00
2019-02-04T05:56:36.586Z,99771.00
2019-02-04T05:59:06.250Z,99758.00
2019-02-04T06:01:36.056Z,99791.00
2019-02-04T06:04:05.997Z,99849.00
2019-02-04T06:06:35.645Z,99847.00
2019-02-04T06:09:08.198Z,99867.00
2019-02-04T06:11:37.837Z,99855.00
2019-02-04T06:14:07.489Z,99849.00
2019-02-04T06:16:37.170Z,99841.00
2019-02-04T06:19:06.841Z,99844.00
2019-02-04T06:21:37.475Z,99824.00
2019-02-04T06:24:07.149Z,99828.00
2019-02-04T06:26:36.813Z,99852.00
2019-02-04T06:29:06.570Z,99855.00
2019-02-04T06:31:36.256Z,99840.00
2019-02-04T06:34:06.008Z,99841.00
2019-02-04T06:36:36.030Z,99851.00
2019-02-04T06:39:10.248Z,99835.00
2019-02-04T06:41:40.082Z,99832.00
2019-02-04T06:44:09.782Z,99832.00
2019-02-04T06:46:39.396Z,99830.00
2019-02-04T06:49:12.331Z,99844.00
2019-02-04T06:51:40.372Z,99819.00
2019-02-04T06:54:10.047Z,99819.00
2019-02-04T06:56:39.690Z,99828.00
2019-02-04T06:59:09.354Z,99836.00
2019-02-04T07:01:39.012Z,99826.00
2019-02-04T07:04:09.330Z,99833.00
2019-02-04T07:06:39.188Z,99823.00
2019-02-04T07:09:10.539Z,99821.00
2019-02-04T07:11:40.511Z,99821.00
2019-02-04T07:14:10.161Z,99819.00
2019-02-04T07:16:39.844Z,99822.00
2019-02-04T07:19:09.568Z,99821.00
2019-02-04T07:21:39.208Z,99810.00
2019-02-04T07:24:09.002Z,99803.00
2019-02-04T07:26:38.631Z,99789.00
2019-02-04T07:29:08.295Z,99799.00
2019-02-04T07:31:37.963Z,99797.00
2019-02-04T07:34:09.047Z,99807.00
2019-02-04T07:36:38.703Z,99789.00
2019-02-04T07:39:09.400Z,99803.00
2019-02-04T07:41:39.038Z,99795.00
2019-02-04T07:44:08.689Z,99809.00
2019-02-04T07:46:38.618Z,99813.00
2019-02-04T07:49:08.272Z,99808.00
2019-02-04T07:51:37.920Z,99809.00
2019-02-04T07:54:07.593Z,99807.00
2019-02-04T07:56:37.265Z,99811.00
2019-02-04T07:59:06.921Z,99802.00
2019-02-04T08:01:37.236Z,99805.00
2019-02-04T08:04:07.292Z,99820.00
2019-02-04T08:06:36.947Z,99802.00
2019-02-04T08:09:08.895Z,99811.00
2019-02-04T08:11:38.545Z,99809.00
2019-02-04T08:14:08.494Z,99817.00
2019-02-04T08:16:38.164Z,99801.00
2019-02-04T08:19:08.506Z,99806.00
2019-02-04T08:21:39.663Z,99805.00
2019-02-04T08:24:09.346Z,99801.00
2019-02-04T08:26:40.652Z,99799.00
2019-02-04T08:29:10.794Z,99800.00
2019-02-04T08:31:40.487Z,99808.00
2019-02-04T08:34:10.136Z,99800.00
2019-02-04T08:36:44.332Z,99817.00
2019-02-04T08:39:11.557Z,99812.00
2019-02-04T08:41:41.360Z,99823.00
2019-02-04T08:44:11.012Z,99828.00
2019-02-04T08:46:40.678Z,99820.00
2019-02-04T08:49:10.511Z,99839.00
2019-02-04T08:51:40.384Z,99832.00
2019-02-04T08:54:10.091Z,99830.00
2019-02-04T08:56:39.752Z,99831.00
2019-02-04T08:59:09.434Z,99845.00
2019-02-04T09:01:39.148Z,99841.00
2019-02-04T09:04:09.227Z,99850.00
2019-02-04T09:06:38.905Z,99859.00
2019-02-04T09:09:09.777Z,99861.00
2019-02-04T09:11:39.434Z,99877.00
2019-02-04T09:14:09.179Z,99873.00
2019-02-04T09:16:38.941Z,99875.00
2019-02-04T09:19:08.610Z,99886.00
2019-02-04T09:21:38.475Z,99892.00
2019-02-04T09:24:08.161Z,99891.00
2019-02-04T09:26:37.833Z,99887.00
2019-02-04T09:29:07.701Z,99885.00
2019-02-04T09:31:37.399Z,99899.00
2019-02-04T09:34:07.369Z,99898.00
2019-02-04T09:36:37.242Z,99896.00
2019-02-04T09:39:09.616Z,99892.00
2019-02-04T09:41:39.886Z,99906.00
2019-02-04T09:44:09.836Z,99903.00
2019-02-04T09:46:39.610Z,99917.00
2019-02-04T09:49:09.284Z,99931.00
2019-02-04T09:51:39.244Z,99930.00
2019-02-04T09:54:10.056Z,99934.00
2019-02-04T09:56:39.987Z,99930.00
2019-02-04T09:59:09.708Z,99929.00
2019-02-04T10:01:39.407Z,99931.00
2019-02-04T10:04:09.071Z,99922.00
2019-02-04T10:06:38.726Z,99930.00
2019-02-04T10:09:09.705Z,99931.00
2019-02-04T10:11:39.440Z,99926.00
2019-02-04T10:14:09.394Z,99924.00
2019-02-04T10:16:39.327Z,99926.00
2019-02-04T10:19:08.939Z,99929.00
2019-02-04T10:21:38.589Z,99917.00
2019-02-04T10:24:09.790Z,99924.00
2019-02-04T10:26:39.615Z,99927.00
2019-02-04T10:29:09.354Z,99930.00
2019-02-04T10:31:39.046Z,99935.00
2019-02-04T10:34:08.860Z,99950.00
2019-02-04T10:36:38.708Z,99968.00
2019-02-04T10:39:10.264Z,99964.00
2019-02-04T10:41:39.968Z,99958.00
2019-02-04T10:44:09.594Z,99972.00
2019-02-04T10:46:40.583Z,99983.00
2019-02-04T10:49:10.360Z,99971.00
2019-02-04T10:51:39.965Z,99968.00
2019-02-04T10:54:09.686Z,99973.00
2019-02-04T10:56:39.313Z,99978.00
2019-02-04T10:59:08.973Z,99975.00
2019-02-04T11:01:39.737Z,99971.00
2019-02-04T11:04:09.527Z,99980.00
2019-02-04T11:06:39.381Z,99989.00
2019-02-04T11:09:10.106Z,99990.00
2019-02-04T11:11:39.839Z,99990.00
2019-02-04T11:14:09.621Z,99995.00
2019-02-04T11:16:39.314Z,100002.00
2019-02-04T11:19:09.703Z,99996.00
2019-02-04T11:21:39.374Z,99992.00
2019-02-04T11:24:09.247Z,100005.00
2019-02-04T11:26:38.915Z,100004.00
2019-02-04T11:29:08.597Z,100015.00
2019-02-04T11:31:38.292Z,100013.00
2019-02-04T11:34:08.254Z,100015.00
2019-02-04T11:36:37.931Z,100023.00
2019-02-04T11:39:09.614Z,100032.00
2019-02-04T11:41:39.369Z,100027.00
2019-02-04T11:44:09.116Z,100030.00
2019-02-04T11:46:39.065Z,100028.00
2019-02-04T11:49:08.798Z,100026.00
2019-02-04T11:51:38.471Z,100030.00
2019-02-04T11:54:08.149Z,100034.00
2019-02-04T11:56:37.824Z,100032.00
2019-02-04T11:59:07.471Z,100034.00
2019-02-04T12:01:37.157Z,100032.00
2019-02-04T12:04:07.030Z,100031.00
2019-02-04T12:06:37.384Z,100025.00
2019-02-04T12:09:09.487Z,100026.00
2019-02-04T12:11:39.217Z,100042.00
2019-02-04T12:14:09.272Z,100045.00
2019-02-04T12:16:38.949Z,100051.00
2019-02-04T12:19:08.613Z,100045.00
2019-02-04T12:21:38.270Z,100049.00
2019-02-04T12:24:08.534Z,100033.00
2019-02-04T12:26:38.270Z,100034.00
2019-02-04T12:29:08.160Z,100031.00
2019-02-04T12:31:37.839Z,100034.00
2019-02-04T12:34:07.590Z,100042.00
2019-02-04T12:36:37.270Z,100044.00
2019-02-04T12:39:11.296Z,100044.00
2019-02-04T12:41:41.133Z,100048.00
2019-02-04T12:44:10.916Z,100053.00
2019-02-04T12:46:40.635Z,100063.00
2019-02-04T12:49:10.289Z,100067.00
2019-02-04T12:51:41.568Z,100073.00
2019-02-04T12:54:11.265Z,100066.00
2019-02-04T12:56:41.262Z,100070.00
2019-02-04T12:59:10.951Z,100075.00
2019-02-04T13:01:40.720Z,100079.00
2019-02-04T13:04:10.747Z,100074.00
2019-02-04T13:06:42.655Z,100077.00
2019-02-04T13:09:12.700Z,100079.00
2019-02-04T13:11:42.381Z,100088.00
2019-02-04T13:14:12.030Z,100086.00
2019-02-04T13:16:41.808Z,100093.00
2019-02-04T13:19:11.488Z,100097.00
2019-02-04T13:21:45.465Z,100098.00
2019-02-04T13:24:12.643Z,100105.00
2019-02-04T13:26:42.320Z,100104.00
2019-02-04T13:29:11.980Z,100103.00
2019-02-04T13:31:41.723Z,100108.00
2019-02-04T13:34:11.507Z,100107.00
2019-02-04T13:36:41.270Z,100118.00
2019-02-04T13:39:11.250Z,100109.00
2019-02-04T13:41:40.988Z,100120.00
2019-02-04T13:44:10.667Z,100119.00
2019-02-04T13:46:40.352Z,100120.00
2019-02-04T13:49:10.034Z,100136.00
2019-02-04T13:51:39.983Z,100145.00
2019-02-04T13:54:09.668Z,100148.00
2019-02-04T13:56:39.333Z,100148.00
2019-02-04T13:59:08.929Z,100144.00
2019-02-04T14:01:38.644Z,100140.00
2019-02-04T14:04:08.322Z,100159.00
2019-02-04T14:06:37.979Z,100160.00
2019-02-04T14:09:12.080Z,100147.00
2019-02-04T14:11:41.743Z,100156.00
2019-02-04T14:14:11.396Z,100153.00
2019-02-04T14:16:41.087Z,100160.00
2019-02-04T14:19:10.744Z,100151.00
2019-02-04T14:21:40.608Z,100156.00
2019-02-04T14:24:10.308Z,100158.00
2019-02-04T14:26:39.973Z,100162.00
2019-02-04T14:29:10.965Z,100162.00
2019-02-04T14:31:40.922Z,100166.00
2019-02-04T14:34:10.612Z,100175.00
2019-02-04T14:36:40.359Z,100176.00
2019-02-04T14:39:14.435Z,100174.00
2019-02-04T14:41:44.114Z,100177.00
2019-02-04T14:44:17.882Z,100169.00
2019-02-04T14:46:59.096Z,100180.00
2019-02-04T14:49:42.115Z,100196.00
2019-02-04T14:52:24.573Z,100200.00
2019-02-04T14:55:25.502Z,100199.00
2019-02-04T14:58:35.923Z,100207.00
2019-02-04T15:01:39.981Z,100206.00
2019-02-04T15:04:39.104Z,100194.00
2019-02-04T15:07:49.037Z,100196.00
2019-02-04T15:10:34.939Z,100189.00
2019-02-04T15:13:32.887Z,100189.00
2019-02-04T15:16:09.865Z,100192.00
2019-02-04T15:19:22.619Z,100195.00
2019-02-04T15:22:14.379Z,100201.00
2019-02-04T15:25:11.962Z,100203.00
2019-02-04T15:28:08.454Z,100218.00
2019-02-04T15:31:20.413Z,100225.00
2019-02-04T15:33:54.641Z,100220.00
2019-02-04T15:36:46.249Z,100214.00
2019-02-04T15:39:29.857Z,100220.00
2019-02-04T15:42:12.881Z,100225.00
2019-02-04T15:45:00.376Z,100252.00
2019-02-04T15:47:45.819Z,100257.00
2019-02-04T15:50:35.169Z,100265.00
2019-02-04T15:53:04.923Z,100276.00
2019-02-04T15:55:34.658Z,100272.00
2019-02-04T15:58:04.405Z,100286.00
2019-02-04T16:00:34.069Z,100296.00
2019-02-04T16:03:04.615Z,100290.00
2019-02-04T16:05:34.319Z,100305.00
2019-02-04T16:08:04.099Z,100291.00
2019-02-04T16:10:33.754Z,100297.00
2019-02-04T16:13:03.443Z,100309.00
2019-02-04T16:15:33.216Z,100295.00
2019-02-04T16:18:03.208Z,100323.00
2019-02-04T16:20:33.022Z,100323.00
2019-02-04T16:23:02.674Z,100335.00
2019-02-04T16:25:32.336Z,100344.00
2019-02-04T16:28:03.051Z,100351.00
2019-02-04T16:30:33.173Z,100352.00
2019-02-04T16:33:02.863Z,100346.00
2019-02-04T16:35:32.568Z,100354.00
2019-02-04T16:38:02.278Z,100357.00
2019-02-04T16:40:33.616Z,100370.00
2019-02-04T16:43:09.572Z,100370.00
2019-02-04T16:45:39.222Z,100385.00
2019-02-04T16:48:08.893Z,100387.00
2019-02-04T16:50:38.596Z,100393.00
2019-02-04T16:53:10.700Z,100394.00
2019-02-04T16:55:39.660Z,100391.00
2019-02-04T16:58:09.914Z,100398.00
2019-02-04T17:00:39.400Z,100404.00
2019-02-04T17:03:09.185Z,100397.00
2019-02-04T17:05:39.084Z,100412.00
2019-02-04T17:08:09.068Z,100422.00
2019-02-04T17:10:38.749Z,100411.00
2019-02-04T17:13:09.294Z,100416.00
2019-02-04T17:15:38.959Z,100425.00
2019-02-04T17:18:09.714Z,100423.00
2019-02-04T17:20:39.398Z,100436.00
2019-02-04T17:23:09.068Z,100423.00
2019-02-04T17:25:40.208Z,100428.00
2019-02-04T17:28:11.008Z,100437.00
2019-02-04T17:30:40.794Z,100451.00
2019-02-04T17:33:10.448Z,100465.00
2019-02-04T17:35:40.136Z,100463.00
2019-02-04T17:38:09.783Z,100461.00
2019-02-04T17:40:41.261Z,100459.00
2019-02-04T17:43:10.975Z,100467.00
2019-02-04T17:45:40.656Z,100473.00
2019-02-04T17:48:12.980Z,100482.00
2019-02-04T17:50:43.886Z,100485.00
2019-02-04T17:53:13.541Z,100480.00
2019-02-04T17:55:43.296Z,100486.00
2019-02-04T17:58:12.981Z,100492.00
2019-02-04T18:00:47.212Z,100504.00
2019-02-04T18:03:16.831Z,100502.00
2019-02-04T18:05:46.815Z,100507.00
2019-02-04T18:08:17.239Z,100516.00
2019-02-04T18:10:47.206Z,100507.00
2019-02-04T18:13:16.912Z,100513.00
2019-02-04T18:15:46.582Z,100520.00
2019-02-04T18:18:17.340Z,100517.00
2019-02-04T18:20:47.125Z,100517.00
2019-02-04T18:23:16.963Z,100521.00
2019-02-04T18:25:47.210Z,100522.00
2019-02-04T18:28:17.322Z,100518.00
2019-02-04T18:30:46.998Z,100521.00
2019-02-04T18:33:16.664Z,100528.00
2019-02-04T18:35:46.554Z,100531.00
2019-02-04T18:38:16.248Z,100524.00
2019-02-04T18:40:46.432Z,100539.00
2019-02-04T18:43:16.145Z,100538.00
2019-02-04T18:45:45.855Z,100539.00
2019-02-04T18:48:15.517Z,100555.00
2019-02-04T18:50:47.143Z,100559.00
2019-02-04T18:53:17.123Z,100560.00
2019-02-04T18:55:46.730Z,100523.00
2019-02-04T18:58:16.445Z,100571.00
2019-02-04T19:00:46.626Z,100576.00
2019-02-04T19:03:17.598Z,100582.00
2019-02-04T19:05:47.722Z,100588.00
2019-02-04T19:08:17.573Z,100576.00
2019-02-04T19:10:47.235Z,100574.00
2019-02-04T19:13:16.937Z,100572.00
2019-02-04T19:15:46.720Z,100588.00
2019-02-04T19:18:18.822Z,100582.00
2019-02-04T19:20:50.239Z,100577.00
2019-02-04T19:23:19.878Z,100574.00
2019-02-04T19:25:49.539Z,100576.00
2019-02-04T19:28:19.579Z,100586.00
2019-02-04T19:31:02.517Z,100603.00
2019-02-04T19:33:32.194Z,100608.00
2019-02-04T19:36:01.833Z,100610.00
2019-02-04T19:38:31.430Z,100614.00
2019-02-04T19:41:02.872Z,100619.00
2019-02-04T19:43:32.537Z,100620.00
2019-02-04T19:46:03.707Z,100624.00
2019-02-04T19:48:33.380Z,100632.00
2019-02-04T19:51:03.725Z,100640.00
2019-02-04T19:53:33.841Z,100631.00
2019-02-04T19:56:03.921Z,100641.00
2019-02-04T19:58:33.570Z,100648.00
2019-02-04T20:01:03.227Z,100647.00
2019-02-04T20:03:32.914Z,100645.00
2019-02-04T20:06:02.565Z,100650.00
2019-02-04T20:08:32.585Z,100650.00
2019-02-04T20:11:02.809Z,100658.00
2019-02-04T20:13:32.840Z,100655.00
2019-02-04T20:16:02.513Z,100660.00
2019-02-04T20:18:32.208Z,100663.00
2019-02-04T20:21:01.945Z,100658.00
2019-02-04T20:23:34.149Z,100658.00
2019-02-04T20:26:03.866Z,100663.00
2019-02-04T20:28:33.601Z,100663.00
2019-02-04T20:31:03.281Z,100661.00
2019-02-04T20:33:34.948Z,100667.00
2019-02-04T20:36:04.932Z,100667.00
2019-02-04T20:38:34.585Z,100675.00
2019-02-04T20:41:05.739Z,100668.00
2019-02-04T20:43:35.415Z,100662.00
2019-02-04T20:46:05.482Z,100666.00
2019-02-04T20:48:35.176Z,100676.00
2019-02-04T20:51:05.301Z,100681.00
2019-02-04T20:53:34.966Z,100674.00
2019-02-04T20:56:04.932Z,100680.00
2019-02-04T20:58:34.606Z,100684.00
2019-02-04T21:01:04.765Z,100689.00
2019-02-04T21:03:35.041Z,100684.00
2019-02-04T21:06:05.266Z,100696.00
2019-02-04T21:08:34.948Z,100694.00
2019-02-04T21:11:04.611Z,100697.00
2019-02-04T21:13:34.197Z,100705.00
2019-02-04T21:16:05.330Z,100714.00
2019-02-04T21:18:35.022Z,100707.00
2019-02-04T21:21:04.665Z,100717.00
2019-02-04T21:23:35.425Z,100717.00
2019-02-04T21:26:06.974Z,100718.00
2019-02-04T21:28:36.925Z,100716.00
2019-02-04T21:31:06.647Z,100708.00
2019-02-04T21:33:36.768Z,100712.00
2019-02-04T21:36:08.258Z,100713.00
2019-02-04T21:38:37.929Z,100704.00
2019-02-04T21:41:07.569Z,100713.00
2019-02-04T21:43:37.300Z,100721.00
2019-02-04T21:46:07.051Z,100710.00
2019-02-04T21:48:38.809Z,100710.00
2019-02-04T21:51:08.814Z,100715.00
2019-02-04T21:53:38.560Z,100721.00
2019-02-04T21:56:08.241Z,100725.00
2019-02-04T21:58:37.968Z,100730.00
2019-02-04T22:01:10.774Z,100729.00
2019-02-04T22:03:40.412Z,100729.00
2019-02-04T22:06:10.064Z,100726.00
2019-02-04T22:08:41.813Z,100724.00
2019-02-04T22:11:11.462Z,100737.00
2019-02-04T22:13:44.298Z,100729.00
2019-02-04T22:16:13.981Z,100739.00
2019-02-04T22:18:43.745Z,100737.00
2019-02-04T22:21:16.875Z,100734.00
2019-02-04T22:23:46.550Z,100744.00
2019-02-04T22:26:16.223Z,100729.00
2019-02-04T22:28:45.894Z,100722.00
2019-02-04T22:31:15.723Z,100731.00
2019-02-04T22:33:45.503Z,100731.00
2019-02-04T22:36:15.161Z,100732.00
2019-02-04T22:38:46.464Z,100734.00
2019-02-04T22:41:16.120Z,100743.00
2019-02-04T22:43:48.000Z,100743.00
2019-02-04T22:46:17.689Z,100748.00
2019-02-04T22:48:50.459Z,100755.00
2019-02-04T22:51:20.141Z,100755.00
2019-02-04T22:53:49.815Z,100762.00
2019-02-04T22:56:19.523Z,100765.00
2019-02-04T22:58:52.160Z,100763.00
2019-02-04T23:01:34.017Z,100762.00
2019-02-04T23:04:03.773Z,100764.00
2019-02-04T23:06:33.512Z,100760.00
2019-02-04T23:09:07.478Z,100762.00
2019-02-04T23:11:37.301Z,100768.00
2019-02-04T23:14:09.526Z,100764.00
2019-02-04T23:16:39.203Z,100772.00
2019-02-04T23:19:10.550Z,100774.00
2019-02-04T23:21:40.590Z,100778.00
2019-02-04T23:24:10.578Z,100780.00
2019-02-04T23:26:40.239Z,100787.00
2019-02-04T23:29:09.917Z,100780.00
2019-02-04T23:31:41.892Z,100785.00
2019-02-04T23:34:12.248Z,100781.00
2019-02-04T23:36:41.918Z,100795.00
2019-02-04T23:39:11.800Z,100795.00
2019-02-04T23:41:41.457Z,100799.00
2019-02-04T23:44:12.105Z,100791.00
2019-02-04T23:46:42.754Z,100787.00
2019-02-04T23:49:12.775Z,100790.00
2019-02-04T23:51:42.426Z,100790.00
2019-02-04T23:54:12.099Z,100792.00
2019-02-04T23:56:41.766Z,100794.00
2019-02-04T23:59:11.738Z,100800.00
